Ivybridge, United Kingdom
Current Conditions -  °F | °C
As of 1:20 AM on Thursday 27 Nov 2014 (Local Time) from EGTE Reporting Station
Moderate Fog Moderate Fog  
Wind Chill: 39°   Ceiling: Unl
Heat Index: 39°   Visibility: 0.56mi
Dew Point: 37°   Wind: 3mph
Humidity: 93%   Direction: 340°NNW
Pressure: 29.71"   Gusts: NA
Location:  50.39°N, 3.92°W
Report Text: EGTE 270120Z 34003KT 0900 FG NSC 04/03 Q1006
Loading
Personal Weather Stations






























Interactive Weather Map New forecast layout! Learn more

10-Day Weather Forecast

Advertisements
Track Severe Weather on mobile